Time;durP1;ratioP1;P1;durP2;ratioP2;P2;SDS_P1;SDS_P2;PMS_P1;PMS_P2;Temp;Humidity;BMP_temperature;BMP_pressure;BME280_temperature;BME280_humidity;BME280_pressure;Samples;Min_cycle;Max_cycle;Signal;HPM_P1;HPM_P2
2022/03/07 00:01:16;;;;;;;6.50;5.90;;;11.40;99.90;;;;;;5065087;28;20523;-63
2022/03/07 00:03:48;;;;;;;6.73;6.13;;;11.30;99.90;;;;;;5064922;28;20456;-63
2022/03/07 00:06:20;;;;;;;8.17;6.50;;;11.30;99.90;;;;;;5065019;28;20499;-63
2022/03/07 00:08:51;;;;;;;6.30;5.70;;;11.20;99.90;;;;;;5064408;28;20539;-63
2022/03/07 00:11:25;;;;;;;10.90;6.33;;;11.30;99.90;;;;;;5064885;28;20543;-63
2022/03/07 00:13:56;;;;;;;6.90;6.30;;;11.40;99.90;;;;;;5063446;28;20523;-63
2022/03/07 00:16:30;;;;;;;7.83;7.03;;;11.20;99.90;;;;;;5064211;28;20468;-63
2022/03/07 00:19:05;;;;;;;8.03;6.33;;;11.10;99.90;;;;;;5064156;28;20476;-63
2022/03/07 00:21:39;;;;;;;8.23;7.33;;;11.10;99.90;;;;;;5064043;28;20509;-63
2022/03/07 00:24:10;;;;;;;7.37;6.73;;;11.20;99.90;;;;;;5064030;28;20542;-63
2022/03/07 00:26:47;;;;;;;7.53;6.87;;;11.30;99.90;;;;;;5064440;28;20479;-63
2022/03/07 00:29:18;;;;;;;7.37;6.67;;;11.20;99.90;;;;;;5063001;28;20448;-63
2022/03/07 00:31:50;;;;;;;7.13;6.53;;;11.10;99.90;;;;;;5063872;28;20508;-63
2022/03/07 00:34:22;;;;;;;6.60;6.10;;;11.10;99.90;;;;;;5063998;28;20445;-62
2022/03/07 00:36:56;;;;;;;7.70;6.93;;;11.10;99.90;;;;;;5064603;28;20530;-64
2022/03/07 00:39:27;;;;;;;7.20;6.47;;;11.10;99.90;;;;;;5063703;28;20494;-65
2022/03/07 00:41:58;;;;;;;7.50;6.80;;;11.20;99.90;;;;;;5063380;28;20524;-63
2022/03/07 00:44:29;;;;;;;8.10;7.33;;;11.20;99.90;;;;;;5063432;28;20475;-64
2022/03/07 00:47:00;;;;;;;7.00;6.30;;;11.20;99.90;;;;;;5064234;28;20479;-62
2022/03/07 00:49:33;;;;;;;6.70;6.10;;;11.10;99.90;;;;;;5064493;28;20821;-62
2022/03/07 00:52:11;;;;;;;7.33;6.60;;;11.10;99.90;;;;;;5063536;28;20447;-63
2022/03/07 00:54:42;;;;;;;7.43;6.70;;;11.10;99.90;;;;;;5063658;28;20452;-63
2022/03/07 00:57:21;;;;;;;6.70;6.07;;;11.10;99.90;;;;;;5062666;28;20449;-62
2022/03/07 00:59:52;;;;;;;7.30;6.60;;;11.10;99.90;;;;;;5063964;28;20555;-62
2022/03/07 01:02:23;;;;;;;7.33;6.63;;;11.20;99.90;;;;;;5063211;28;20561;-62
2022/03/07 01:04:56;;;;;;;7.97;6.93;;;11.10;99.90;;;;;;5063438;28;20510;-62
2022/03/07 01:07:30;;;;;;;7.27;6.60;;;11.00;99.90;;;;;;5063940;28;20449;-62
2022/03/07 01:10:01;;;;;;;7.77;6.57;;;10.90;99.90;;;;;;5063641;28;20535;-62
2022/03/07 01:12:32;;;;;;;6.63;6.03;;;10.90;99.90;;;;;;5062261;28;20925;-62
2022/03/07 01:15:12;;;;;;;6.43;5.83;;;10.90;99.90;;;;;;5063501;28;20559;-62
2022/03/07 01:17:48;;;;;;;7.57;6.67;;;10.80;99.90;;;;;;5063333;28;20457;-62
2022/03/07 01:20:23;;;;;;;8.40;6.57;;;10.80;99.90;;;;;;5047503;28;20488;-62
2022/03/07 01:22:56;;;;;;;7.30;6.70;;;10.70;99.90;;;;;;5063348;28;20463;-62
2022/03/07 01:25:29;;;;;;;7.37;6.67;;;10.60;99.90;;;;;;5055269;28;20479;-62
2022/03/07 01:28:07;;;;;;;6.87;6.03;;;10.50;99.90;;;;;;5060151;28;20449;-63
2022/03/07 01:30:38;;;;;;;6.80;6.20;;;10.40;99.90;;;;;;5062110;28;20444;-63
2022/03/07 01:33:09;;;;;;;8.87;7.20;;;10.30;99.90;;;;;;5064478;28;20539;-62
2022/03/07 01:35:44;;;;;;;7.93;7.23;;;10.30;99.90;;;;;;5062597;28;20457;-68
2022/03/07 01:38:15;;;;;;;7.77;6.90;;;10.30;99.90;;;;;;5060733;28;20534;-62
2022/03/07 01:40:50;;;;;;;9.53;7.47;;;10.30;99.90;;;;;;5062961;28;20484;-62
2022/03/07 01:43:21;;;;;;;7.20;6.47;;;10.20;99.90;;;;;;5060539;28;20448;-63
2022/03/07 01:45:52;;;;;;;7.07;6.40;;;10.20;99.90;;;;;;5071191;28;20460;-62
2022/03/07 01:48:23;;;;;;;8.13;7.33;;;10.20;99.90;;;;;;5062346;28;20483;-62
2022/03/07 01:50:56;;;;;;;7.83;7.13;;;10.10;99.90;;;;;;5062259;28;20445;-63
2022/03/07 01:53:30;;;;;;;8.10;7.37;;;10.00;99.90;;;;;;5064645;28;20606;-64
2022/03/07 01:56:02;;;;;;;7.67;7.00;;;9.90;99.90;;;;;;5062437;28;20506;-63
2022/03/07 01:58:34;;;;;;;8.80;8.00;;;9.80;99.90;;;;;;5057495;28;20467;-63
2022/03/07 02:01:13;;;;;;;7.70;7.00;;;9.60;99.90;;;;;;5062035;28;20582;-63
2022/03/07 02:03:44;;;;;;;6.80;6.20;;;9.50;99.90;;;;;;5061899;28;20453;-66
2022/03/07 02:06:17;;;;;;;7.00;6.40;;;9.40;99.90;;;;;;5062496;28;20544;-63
2022/03/07 02:08:48;;;;;;;6.97;6.47;;;9.30;99.90;;;;;;5068768;28;20464;-62
2022/03/07 02:11:19;;;;;;;7.73;6.93;;;9.20;99.90;;;;;;5064085;28;20512;-64
2022/03/07 02:13:50;;;;;;;8.30;6.83;;;9.10;99.90;;;;;;5060059;28;20453;-64
2022/03/07 02:16:22;;;;;;;8.10;6.87;;;9.00;99.90;;;;;;5062414;28;20499;-67
2022/03/07 02:19:02;;;;;;;7.40;6.70;;;8.90;99.90;;;;;;5064976;28;20514;-65
2022/03/07 02:21:36;;;;;;;7.28;6.55;;;8.90;99.90;;;;;;5062852;28;20565;-62
2022/03/07 02:24:12;;;;;;;7.38;6.72;;;8.90;99.90;;;;;;5062277;28;20320;-63
2022/03/07 02:26:43;;;;;;;8.85;7.15;;;8.80;99.90;;;;;;5069215;28;20257;-64
2022/03/07 02:29:14;;;;;;;8.35;7.45;;;8.70;99.90;;;;;;5055278;28;20265;-63
2022/03/07 02:31:45;;;;;;;7.50;6.83;;;8.60;99.90;;;;;;5062821;28;20281;-65
2022/03/07 02:34:18;;;;;;;7.85;7.15;;;8.40;99.90;;;;;;5061683;28;20527;-64
2022/03/07 02:36:49;;;;;;;7.95;7.15;;;8.40;99.90;;;;;;5062302;28;20338;-63
2022/03/07 02:39:22;;;;;;;7.88;7.18;;;8.40;99.90;;;;;;5064486;28;20646;-65
2022/03/07 02:41:54;;;;;;;8.30;7.50;;;8.30;99.90;;;;;;5061614;28;20545;-65
2022/03/07 02:44:28;;;;;;;7.87;7.03;;;8.20;99.90;;;;;;5064495;28;20250;-61
2022/03/07 02:47:00;;;;;;;9.32;7.68;;;8.00;99.90;;;;;;5065983;28;20555;-61
2022/03/07 02:49:31;;;;;;;7.82;7.13;;;8.00;99.90;;;;;;5063070;28;20210;-60
2022/03/07 02:52:02;;;;;;;8.18;7.45;;;7.90;99.90;;;;;;5063508;28;20252;-61
2022/03/07 02:54:35;;;;;;;8.70;7.90;;;7.80;99.90;;;;;;5070849;28;20265;-64
2022/03/07 02:57:09;;;;;;;11.65;8.18;;;7.80;99.90;;;;;;5054832;28;20232;-61
2022/03/07 02:59:40;;;;;;;10.60;8.82;;;7.70;99.90;;;;;;5062295;28;20210;-63
2022/03/07 03:02:13;;;;;;;10.10;9.18;;;7.70;99.90;;;;;;5058773;28;20260;-64
2022/03/07 03:04:44;;;;;;;9.98;8.98;;;7.70;99.90;;;;;;5065190;28;20194;-60
2022/03/07 03:07:15;;;;;;;10.77;8.82;;;7.70;99.90;;;;;;5065761;28;20224;-62
2022/03/07 03:09:48;;;;;;;11.23;9.02;;;7.60;99.90;;;;;;5066467;28;20229;-61
2022/03/07 03:12:24;;;;;;;10.60;9.57;;;7.50;99.90;;;;;;5050054;28;20218;-61
2022/03/07 03:14:55;;;;;;;10.38;9.38;;;7.40;99.90;;;;;;5052461;28;20240;-63
2022/03/07 03:17:26;;;;;;;11.52;9.80;;;7.40;99.90;;;;;;5056855;28;20221;-63
2022/03/07 03:19:57;;;;;;;10.82;8.95;;;7.40;99.90;;;;;;5060698;28;20213;-61
2022/03/07 03:22:28;;;;;;;10.70;9.70;;;7.30;99.90;;;;;;5065650;28;20212;-61
2022/03/07 03:25:01;;;;;;;10.23;9.30;;;7.30;99.90;;;;;;5065557;28;20250;-70
2022/03/07 03:27:32;;;;;;;9.25;8.15;;;7.20;99.90;;;;;;5065141;28;20205;-62
2022/03/07 03:30:03;;;;;;;10.63;9.52;;;7.20;99.90;;;;;;5066027;28;20214;-67
2022/03/07 03:32:34;;;;;;;11.60;10.00;;;7.20;99.90;;;;;;5065163;28;20674;-64
2022/03/07 03:35:06;;;;;;;11.50;10.32;;;7.20;99.90;;;;;;5065547;28;20202;-66
2022/03/07 03:37:38;;;;;;;11.82;10.63;;;7.10;99.90;;;;;;5065133;28;20198;-63
2022/03/07 03:40:12;;;;;;;14.10;11.13;;;7.00;99.90;;;;;;5065328;28;20289;-63
2022/03/07 03:42:43;;;;;;;11.75;10.40;;;7.00;99.90;;;;;;5061491;28;20201;-63
2022/03/07 03:45:15;;;;;;;11.93;10.63;;;7.10;99.90;;;;;;5065605;28;20212;-63
2022/03/07 03:47:46;;;;;;;12.50;11.35;;;7.00;99.90;;;;;;5064667;28;20204;-64
2022/03/07 03:50:18;;;;;;;11.85;10.65;;;6.90;99.90;;;;;;5065061;28;20279;-62
2022/03/07 03:52:49;;;;;;;14.30;11.18;;;6.80;99.90;;;;;;5064079;28;20204;-63
2022/03/07 03:55:22;;;;;;;14.13;12.70;;;6.90;99.90;;;;;;5065433;28;20721;-63
2022/03/07 03:57:53;;;;;;;13.00;11.75;;;6.90;99.90;;;;;;5064554;28;20289;-63
2022/03/07 04:00:24;;;;;;;13.90;12.52;;;6.90;99.90;;;;;;5065545;28;20713;-63
2022/03/07 04:02:55;;;;;;;13.88;12.38;;;6.80;99.90;;;;;;5064638;28;20210;-63
2022/03/07 04:05:26;;;;;;;14.00;12.50;;;6.80;99.90;;;;;;5064753;28;20210;-63
2022/03/07 04:07:57;;;;;;;14.68;12.75;;;6.70;99.90;;;;;;5064589;28;20198;-62
2022/03/07 04:10:30;;;;;;;15.45;12.30;;;6.60;99.90;;;;;;5065298;28;20198;-62
2022/03/07 04:13:01;;;;;;;13.07;11.60;;;6.60;99.90;;;;;;5064153;28;20190;-67
2022/03/07 04:15:32;;;;;;;12.90;11.57;;;6.50;99.90;;;;;;5064268;28;20229;-63
2022/03/07 04:18:03;;;;;;;14.68;13.10;;;6.50;99.90;;;;;;5064818;28;20628;-65
2022/03/07 04:20:34;;;;;;;14.27;12.90;;;6.50;99.90;;;;;;5064977;28;20289;-63
2022/03/07 04:23:05;;;;;;;13.80;12.40;;;6.40;99.90;;;;;;5061709;28;20328;-63
2022/03/07 04:25:38;;;;;;;15.00;13.15;;;6.30;99.90;;;;;;5064135;28;20193;-63
2022/03/07 04:28:09;;;;;;;15.38;13.88;;;6.40;99.90;;;;;;5067919;28;20290;-63
2022/03/07 04:30:40;;;;;;;16.65;14.85;;;6.30;99.90;;;;;;5069811;28;20655;-63
2022/03/07 04:33:13;;;;;;;17.48;15.88;;;6.30;99.90;;;;;;5050937;28;20229;-63
2022/03/07 04:35:43;;;;;;;18.88;16.90;;;6.30;99.90;;;;;;5068705;28;20209;-63
2022/03/07 04:38:15;;;;;;;17.40;15.75;;;6.30;99.90;;;;;;5064054;28;20664;-65
2022/03/07 04:40:47;;;;;;;17.60;15.60;;;6.30;99.90;;;;;;5063433;28;20277;-63
2022/03/07 04:43:18;;;;;;;19.42;16.30;;;6.20;99.90;;;;;;5063502;28;20202;-63
2022/03/07 04:45:50;;;;;;;19.55;17.40;;;6.20;99.90;;;;;;5062013;28;20208;-63
2022/03/07 04:48:20;;;;;;;17.40;15.18;;;6.10;99.90;;;;;;5063414;28;20198;-63
2022/03/07 04:50:51;;;;;;;18.02;16.17;;;6.10;99.90;;;;;;5063918;28;20261;-63
2022/03/07 04:53:22;;;;;;;19.35;17.40;;;6.10;99.90;;;;;;5062392;28;20235;-64
2022/03/07 04:55:54;;;;;;;23.25;17.60;;;6.10;99.90;;;;;;5064518;28;20534;-64
2022/03/07 04:58:28;;;;;;;26.25;19.58;;;6.10;99.90;;;;;;5063301;28;20196;-64
2022/03/07 05:00:59;;;;;;;21.02;18.60;;;5.90;99.90;;;;;;5065848;28;20224;-63
2022/03/07 05:03:30;;;;;;;27.88;19.42;;;6.00;99.90;;;;;;5068686;28;20233;-65
2022/03/07 05:06:01;;;;;;;25.15;20.45;;;6.00;99.90;;;;;;5062562;28;20230;-63
2022/03/07 05:08:32;;;;;;;20.25;18.15;;;6.00;99.90;;;;;;5061012;28;20190;-63
2022/03/07 05:11:04;;;;;;;24.13;19.35;;;5.80;99.90;;;;;;5063640;28;20198;-63
2022/03/07 05:13:35;;;;;;;22.20;19.90;;;5.80;99.90;;;;;;5062650;28;20241;-64
2022/03/07 05:16:07;;;;;;;23.98;20.30;;;5.80;99.90;;;;;;5062907;28;20243;-64
2022/03/07 05:18:38;;;;;;;23.15;20.75;;;5.90;99.90;;;;;;5063237;28;20209;-64
2022/03/07 05:21:11;;;;;;;24.52;20.02;;;5.90;99.90;;;;;;5063240;28;20221;-64
2022/03/07 05:23:42;;;;;;;25.88;21.67;;;5.90;99.90;;;;;;5062725;28;20655;-64
2022/03/07 05:26:15;;;;;;;24.52;21.00;;;5.80;99.90;;;;;;5053397;28;20208;-64
2022/03/07 05:28:46;;;;;;;29.50;21.73;;;5.60;99.90;;;;;;5064089;28;20221;-64
2022/03/07 05:31:23;;;;;;;21.88;19.50;;;5.60;99.90;;;;;;5063669;28;20209;-64
2022/03/07 05:33:54;;;;;;;27.23;21.80;;;5.60;99.90;;;;;;5064737;28;20292;-64
2022/03/07 05:36:25;;;;;;;22.33;20.13;;;5.50;99.90;;;;;;5069154;28;20274;-64
2022/03/07 05:38:56;;;;;;;24.67;21.55;;;5.50;99.90;;;;;;5066087;28;20201;-64
2022/03/07 05:41:29;;;;;;;23.42;21.02;;;5.50;99.90;;;;;;5064880;28;20218;-64
2022/03/07 05:44:00;;;;;;;24.45;21.88;;;5.40;99.90;;;;;;5070355;28;20213;-64
2022/03/07 05:46:31;;;;;;;23.40;20.90;;;5.40;99.90;;;;;;5068827;28;20205;-64
2022/03/07 05:49:02;;;;;;;30.02;22.50;;;5.40;99.90;;;;;;5063521;28;20212;-64
2022/03/07 05:51:33;;;;;;;23.60;21.15;;;5.40;99.90;;;;;;5066309;28;20218;-64
2022/03/07 05:54:04;;;;;;;22.73;20.38;;;5.30;99.90;;;;;;5062826;28;20198;-64
2022/03/07 05:56:37;;;;;;;25.42;22.48;;;5.20;99.90;;;;;;5066893;28;20186;-64
2022/03/07 05:59:08;;;;;;;27.80;21.75;;;5.20;99.90;;;;;;5064258;28;20288;-64
2022/03/07 06:01:39;;;;;;;27.17;21.45;;;5.20;99.90;;;;;;5063108;28;20233;-64
2022/03/07 06:04:10;;;;;;;33.35;22.15;;;5.20;99.90;;;;;;5063086;28;20232;-64
2022/03/07 06:06:43;;;;;;;25.90;23.17;;;5.20;99.90;;;;;;5063841;28;20202;-64
2022/03/07 06:09:14;;;;;;;23.67;20.80;;;5.10;99.90;;;;;;5067704;28;20279;-64
2022/03/07 06:11:47;;;;;;;24.65;22.10;;;5.20;99.90;;;;;;5067251;28;20641;-64
2022/03/07 06:14:18;;;;;;;24.20;21.73;;;5.10;99.90;;;;;;5062053;28;20229;-64
2022/03/07 06:16:50;;;;;;;27.00;22.38;;;5.10;99.90;;;;;;5062571;28;20198;-63
2022/03/07 06:19:21;;;;;;;25.02;21.95;;;5.10;99.90;;;;;;5076986;28;20256;-64
2022/03/07 06:21:52;;;;;;;25.50;22.15;;;5.00;99.90;;;;;;5063538;28;20218;-64
2022/03/07 06:24:23;;;;;;;24.80;22.13;;;4.90;99.90;;;;;;5069983;28;20277;-64
2022/03/07 06:26:55;;;;;;;24.25;21.65;;;4.90;99.90;;;;;;5064153;28;20190;-64
2022/03/07 06:29:28;;;;;;;25.75;21.40;;;4.90;99.90;;;;;;5069347;28;20197;-64
2022/03/07 06:31:59;;;;;;;25.00;21.75;;;4.80;99.90;;;;;;5064078;28;20209;-64
2022/03/07 06:34:31;;;;;;;26.10;22.52;;;4.90;99.90;;;;;;5064933;28;20205;-64
2022/03/07 06:37:02;;;;;;;35.10;24.65;;;4.80;99.90;;;;;;5062638;28;20545;-64
2022/03/07 06:39:34;;;;;;;24.75;22.15;;;4.80;99.90;;;;;;5067319;28;20196;-64
2022/03/07 06:42:07;;;;;;;27.00;23.48;;;4.70;99.90;;;;;;5068949;28;20261;-64
2022/03/07 06:44:39;;;;;;;26.65;23.85;;;4.70;99.90;;;;;;5068026;28;20204;-64
2022/03/07 06:47:11;;;;;;;26.63;23.55;;;4.70;99.90;;;;;;5056532;28;20236;-64
2022/03/07 06:49:42;;;;;;;25.88;23.23;;;4.70;99.90;;;;;;5066124;28;20202;-63
2022/03/07 06:52:13;;;;;;;28.27;25.35;;;4.70;99.90;;;;;;5066368;28;20293;-64
2022/03/07 06:54:45;;;;;;;29.08;23.05;;;4.70;99.90;;;;;;5066323;28;20194;-64
2022/03/07 06:57:17;;;;;;;33.03;23.50;;;4.60;99.90;;;;;;5064800;28;20194;-64
2022/03/07 06:59:49;;;;;;;28.35;22.25;;;4.60;99.90;;;;;;5069791;28;20194;-64
2022/03/07 07:02:20;;;;;;;31.17;22.52;;;4.50;99.90;;;;;;5065683;28;20241;-63
2022/03/07 07:04:52;;;;;;;24.90;22.30;;;4.50;99.90;;;;;;5068070;28;20205;-64
2022/03/07 07:07:23;;;;;;;23.88;20.85;;;4.50;99.90;;;;;;5071627;28;20296;-64
2022/03/07 07:09:54;;;;;;;24.40;22.00;;;4.50;99.90;;;;;;5064726;28;20194;-64
2022/03/07 07:12:27;;;;;;;29.27;24.75;;;4.50;99.90;;;;;;5071435;28;20305;-64
2022/03/07 07:14:58;;;;;;;27.70;24.77;;;4.40;99.90;;;;;;5070428;28;20240;-64
2022/03/07 07:17:29;;;;;;;25.17;22.50;;;4.40;99.90;;;;;;5066193;28;20292;-64
2022/03/07 07:20:01;;;;;;;29.38;24.08;;;4.40;99.90;;;;;;5069007;28;20277;-64
2022/03/07 07:22:32;;;;;;;26.23;23.52;;;4.40;99.90;;;;;;5065110;28;20245;-64
2022/03/07 07:25:03;;;;;;;28.58;23.83;;;4.30;99.90;;;;;;5063736;28;20182;-64
2022/03/07 07:27:36;;;;;;;27.00;24.30;;;4.40;99.90;;;;;;5063347;28;20259;-64
2022/03/07 07:30:09;;;;;;;29.00;23.98;;;4.30;99.90;;;;;;5065678;28;20202;-64
2022/03/07 07:32:40;;;;;;;27.42;22.83;;;4.30;99.90;;;;;;5069937;28;20202;-64
2022/03/07 07:35:12;;;;;;;26.98;24.17;;;4.40;99.90;;;;;;5070531;28;20194;-64
2022/03/07 07:37:42;;;;;;;27.42;23.95;;;4.40;99.90;;;;;;5068282;28;20208;-64
2022/03/07 07:40:13;;;;;;;26.08;23.17;;;4.30;99.90;;;;;;5065918;28;20189;-65
2022/03/07 07:42:46;;;;;;;27.73;24.73;;;4.30;99.90;;;;;;5058991;28;20288;-64
2022/03/07 07:45:17;;;;;;;26.77;23.35;;;4.30;99.90;;;;;;5069153;28;20208;-64
2022/03/07 07:47:47;;;;;;;30.33;24.95;;;4.30;99.90;;;;;;5064167;28;20222;-64
2022/03/07 07:50:21;;;;;;;26.33;23.50;;;4.30;99.90;;;;;;5072387;28;20205;-64
2022/03/07 07:52:51;;;;;;;25.73;23.00;;;4.30;99.90;;;;;;5066119;28;20227;-64
2022/03/07 07:55:22;;;;;;;28.95;24.50;;;4.40;99.90;;;;;;5066430;28;20196;-64
2022/03/07 07:57:55;;;;;;;27.60;24.60;;;4.40;99.90;;;;;;5065840;28;20194;-64
2022/03/07 08:00:27;;;;;;;29.80;24.90;;;4.50;99.90;;;;;;5067638;28;20202;-64
2022/03/07 08:02:58;;;;;;;27.00;23.98;;;4.50;99.90;;;;;;5064245;28;20297;-64
2022/03/07 08:05:29;;;;;;;28.95;25.83;;;4.50;99.90;;;;;;5065339;28;20260;-64
2022/03/07 08:08:00;;;;;;;27.30;24.27;;;4.50;99.90;;;;;;5064625;28;20202;-64
2022/03/07 08:10:31;;;;;;;25.95;23.25;;;4.60;99.90;;;;;;5066178;28;20517;-64
2022/03/07 08:13:03;;;;;;;26.92;24.02;;;4.60;99.90;;;;;;5067198;28;20205;-64
2022/03/07 08:15:34;;;;;;;28.30;24.00;;;4.60;99.90;;;;;;5074221;28;20237;-64
2022/03/07 08:18:06;;;;;;;26.60;22.48;;;4.50;99.90;;;;;;5074698;28;20194;-64
2022/03/07 08:20:37;;;;;;;30.08;24.67;;;4.50;99.90;;;;;;5069302;28;20206;-64
2022/03/07 08:23:08;;;;;;;27.27;24.48;;;4.50;99.90;;;;;;5071716;28;20213;-64
2022/03/07 08:25:39;;;;;;;26.95;23.13;;;4.40;99.90;;;;;;5065091;28;20197;-64
2022/03/07 08:28:12;;;;;;;25.35;22.75;;;4.40;99.90;;;;;;5064005;28;20308;-64
2022/03/07 08:30:43;;;;;;;26.80;23.77;;;4.30;99.90;;;;;;5068037;28;20198;-64
2022/03/07 08:33:14;;;;;;;29.52;23.05;;;4.20;99.90;;;;;;5069612;28;20718;-64
2022/03/07 08:35:45;;;;;;;27.65;24.75;;;4.20;99.90;;;;;;5065302;28;20715;-63
2022/03/07 08:38:16;;;;;;;27.25;23.20;;;4.30;99.90;;;;;;5065445;28;20186;-64
2022/03/07 08:40:48;;;;;;;27.85;24.58;;;4.30;99.90;;;;;;5069674;28;20204;-63
2022/03/07 08:43:20;;;;;;;28.13;24.45;;;4.20;99.90;;;;;;5062273;28;20218;-64
2022/03/07 08:45:51;;;;;;;26.40;23.38;;;4.10;99.90;;;;;;5064357;28;20202;-63
2022/03/07 08:48:27;;;;;;;28.83;24.73;;;4.00;99.90;;;;;;5067889;28;20304;-64
2022/03/07 08:50:58;;;;;;;27.08;24.15;;;4.00;99.90;;;;;;5063880;28;20206;-64
2022/03/07 08:53:29;;;;;;;25.52;23.08;;;3.90;99.90;;;;;;5070046;28;20217;-64
2022/03/07 08:55:59;;;;;;;27.30;23.63;;;3.80;99.90;;;;;;5065753;28;20218;-62
2022/03/07 08:58:53;;;;;;;25.98;22.80;;;3.90;99.90;;;;;;5062697;28;20247;-62
2022/03/07 09:01:24;;;;;;;28.00;24.63;;;3.90;99.90;;;;;;5065102;28;20208;-62
2022/03/07 09:03:55;;;;;;;31.10;25.80;;;3.90;99.90;;;;;;5063276;28;20226;-62
2022/03/07 09:06:26;;;;;;;26.98;23.63;;;3.90;99.90;;;;;;5067666;28;20546;-62
2022/03/07 09:08:57;;;;;;;25.08;22.48;;;3.80;99.90;;;;;;5063921;28;20293;-62
2022/03/07 09:11:48;;;;;;;28.88;23.60;;;3.70;99.90;;;;;;5063969;28;20519;-62
2022/03/07 09:14:20;;;;;;;27.48;24.63;;;3.70;99.90;;;;;;5066709;28;20270;-63
2022/03/07 09:16:51;;;;;;;25.85;23.05;;;3.70;99.90;;;;;;5070899;28;20203;-62
2022/03/07 09:19:22;;;;;;;31.92;25.85;;;3.60;99.90;;;;;;5067199;28;20245;-61
2022/03/07 09:21:53;;;;;;;27.65;24.38;;;3.60;99.90;;;;;;5064561;28;20213;-62
2022/03/07 09:24:23;;;;;;;27.15;24.23;;;3.50;99.90;;;;;;5063425;28;20225;-62
2022/03/07 09:26:54;;;;;;;26.55;23.58;;;3.50;99.90;;;;;;5065119;28;20205;-62
2022/03/07 09:29:27;;;;;;;27.95;24.02;;;3.50;99.90;;;;;;5063266;28;20280;-61
2022/03/07 09:32:03;;;;;;;28.23;23.15;;;3.50;99.90;;;;;;5063016;28;20202;-62
2022/03/07 09:34:34;;;;;;;25.95;23.02;;;3.50;99.90;;;;;;5063213;28;20273;-62
2022/03/07 09:37:06;;;;;;;27.55;22.58;;;3.40;99.90;;;;;;5062639;28;20232;-61
2022/03/07 09:39:37;;;;;;;26.63;23.92;;;3.40;99.90;;;;;;5062793;28;20202;-62
2022/03/07 09:42:08;;;;;;;29.48;25.30;;;3.40;99.90;;;;;;5067149;28;20193;-62
2022/03/07 09:44:41;;;;;;;30.20;25.00;;;3.40;99.90;;;;;;5070914;28;20221;-62
2022/03/07 09:47:12;;;;;;;25.85;23.15;;;3.40;99.90;;;;;;5063095;28;20327;-62
2022/03/07 09:49:43;;;;;;;30.08;24.55;;;3.30;99.90;;;;;;5070668;28;20292;-61
2022/03/07 09:52:14;;;;;;;29.95;25.92;;;3.30;99.90;;;;;;5063799;28;20206;-62
2022/03/07 09:54:45;;;;;;;28.52;25.52;;;3.20;99.90;;;;;;5062279;28;20229;-61
2022/03/07 09:57:16;;;;;;;27.63;23.75;;;3.30;99.90;;;;;;5063101;28;20216;-63
2022/03/07 09:59:48;;;;;;;29.63;24.67;;;3.30;99.90;;;;;;5064013;28;20190;-62
2022/03/07 10:02:25;;;;;;;30.52;26.10;;;3.30;99.90;;;;;;5062002;28;20578;-62
2022/03/07 10:05:01;;;;;;;29.63;25.67;;;3.30;99.90;;;;;;5060206;28;20230;-61
2022/03/07 10:07:32;;;;;;;26.60;23.73;;;3.30;99.90;;;;;;5062284;28;20193;-61
2022/03/07 10:10:08;;;;;;;27.95;24.35;;;3.20;99.90;;;;;;5062648;28;20204;-62
2022/03/07 10:12:47;;;;;;;28.63;24.52;;;3.20;99.90;;;;;;5062173;28;20186;-62
2022/03/07 10:15:20;;;;;;;29.33;23.88;;;3.10;99.90;;;;;;5063397;28;20236;-62
2022/03/07 10:17:54;;;;;;;29.48;23.30;;;3.10;99.90;;;;;;5069733;28;20226;-63
2022/03/07 10:20:27;;;;;;;33.78;25.45;;;3.00;99.90;;;;;;5057583;28;20285;-63
2022/03/07 10:22:59;;;;;;;28.42;24.90;;;3.00;99.90;;;;;;5062177;28;20205;-63
2022/03/07 10:25:38;;;;;;;30.90;26.27;;;3.00;99.90;;;;;;5066228;28;20232;-63
2022/03/07 10:28:09;;;;;;;25.67;22.77;;;2.90;99.90;;;;;;5063633;28;20197;-63
2022/03/07 10:30:42;;;;;;;26.15;23.38;;;2.90;99.90;;;;;;5062451;28;20186;-63
2022/03/07 10:33:15;;;;;;;27.13;23.92;;;2.90;99.90;;;;;;5061514;28;20194;-63
2022/03/07 10:35:50;;;;;;;29.15;23.70;;;2.90;99.90;;;;;;5063397;28;20201;-62
2022/03/07 10:38:23;;;;;;;28.45;25.45;;;2.90;99.90;;;;;;5062411;28;20239;-63
2022/03/07 10:40:56;;;;;;;29.08;25.83;;;3.00;99.90;;;;;;5062373;28;20581;-62
2022/03/07 10:43:28;;;;;;;29.67;24.40;;;2.90;99.90;;;;;;5066930;28;20219;-63
2022/03/07 10:46:04;;;;;;;28.48;23.65;;;2.70;99.90;;;;;;5062110;28;20218;-63
2022/03/07 10:48:43;;;;;;;32.40;24.80;;;2.70;99.90;;;;;;5062172;28;20204;-63
2022/03/07 10:51:18;;;;;;;31.30;24.40;;;2.70;99.90;;;;;;5067859;28;20212;-63
2022/03/07 10:53:49;;;;;;;25.08;22.27;;;2.80;99.90;;;;;;5062528;28;20979;-63
2022/03/07 10:56:21;;;;;;;26.77;23.92;;;2.70;99.90;;;;;;5073893;28;20200;-62
2022/03/07 10:58:54;;;;;;;31.42;26.75;;;2.70;99.90;;;;;;5061146;28;20206;-63
2022/03/07 11:01:33;;;;;;;31.77;26.42;;;2.80;99.90;;;;;;5063090;28;20648;-62
2022/03/07 11:04:05;;;;;;;31.70;24.63;;;2.70;99.90;;;;;;5063297;28;20289;-63
2022/03/07 11:06:35;;;;;;;30.52;25.85;;;2.70;99.90;;;;;;5075520;28;20194;-63
2022/03/07 11:09:06;;;;;;;27.55;23.88;;;2.70;99.90;;;;;;5062107;28;20202;-63
2022/03/07 11:11:37;;;;;;;29.08;22.95;;;2.60;99.90;;;;;;5066240;28;20209;-63
2022/03/07 11:14:09;;;;;;;29.15;24.15;;;2.50;99.90;;;;;;5062946;28;20225;-63
2022/03/07 11:16:43;;;;;;;30.15;24.00;;;2.50;99.90;;;;;;5068288;28;20220;-63
2022/03/07 11:19:15;;;;;;;29.10;23.42;;;2.50;99.90;;;;;;5061976;28;20276;-63
2022/03/07 11:21:49;;;;;;;31.95;25.52;;;2.50;99.90;;;;;;5062614;28;20206;-63
2022/03/07 11:24:22;;;;;;;28.83;25.27;;;2.50;99.90;;;;;;5074702;28;20215;-63
2022/03/07 11:26:54;;;;;;;28.75;23.55;;;2.40;99.90;;;;;;5081337;28;20655;-63
2022/03/07 11:29:35;;;;;;;29.33;24.30;;;2.50;99.90;;;;;;5056715;28;20202;-63
2022/03/07 11:32:10;;;;;;;27.95;24.52;;;2.50;99.90;;;;;;5060498;28;20222;-62
2022/03/07 11:34:52;;;;;;;27.35;23.92;;;2.40;99.90;;;;;;5065950;28;20192;-63
2022/03/07 11:37:24;;;;;;;28.08;22.67;;;2.30;99.90;;;;;;5071185;28;20217;-62
2022/03/07 11:39:58;;;;;;;25.38;22.75;;;2.30;99.90;;;;;;5072484;28;20206;-63
2022/03/07 11:42:37;;;;;;;27.83;22.52;;;2.30;99.90;;;;;;5064995;28;20973;-63
2022/03/07 11:45:11;;;;;;;29.80;22.80;;;2.30;99.90;;;;;;5065892;28;20568;-63
2022/03/07 11:47:44;;;;;;;25.27;22.65;;;2.30;99.90;;;;;;5065020;28;20202;-63
2022/03/07 11:50:18;;;;;;;27.83;23.48;;;2.40;99.90;;;;;;5065373;28;20202;-63
2022/03/07 11:52:49;;;;;;;25.58;22.42;;;2.30;99.90;;;;;;5064129;28;20205;-63
2022/03/07 11:55:21;;;;;;;26.02;23.25;;;2.30;99.90;;;;;;5072924;28;20272;-62
2022/03/07 11:58:01;;;;;;;26.88;24.00;;;2.30;99.90;;;;;;5072471;28;20216;-62
2022/03/07 12:00:34;;;;;;;26.65;22.42;;;2.40;99.90;;;;;;5067876;28;20200;-63
2022/03/07 12:03:15;;;;;;;25.23;22.33;;;2.40;99.90;;;;;;5063915;28;20252;-63
2022/03/07 12:05:46;;;;;;;28.30;22.83;;;2.40;99.90;;;;;;5053212;28;20221;-63
2022/03/07 12:08:18;;;;;;;25.10;22.40;;;2.30;99.90;;;;;;5072514;28;20201;-63
2022/03/07 12:10:57;;;;;;;26.92;23.05;;;2.30;99.90;;;;;;5068410;28;20190;-62
2022/03/07 12:13:32;;;;;;;28.33;23.60;;;2.30;99.90;;;;;;5064154;28;20205;-63
2022/03/07 12:16:03;;;;;;;31.52;23.70;;;2.30;99.90;;;;;;5068305;28;20234;-62
2022/03/07 12:18:36;;;;;;;29.80;23.50;;;2.30;99.90;;;;;;5066047;28;20206;-63
2022/03/07 12:21:07;;;;;;;26.05;23.25;;;2.30;99.90;;;;;;5069430;28;20232;-63
2022/03/07 12:23:38;;;;;;;28.60;22.23;;;2.30;99.90;;;;;;5077986;28;20210;-63
2022/03/07 12:26:11;;;;;;;29.95;22.83;;;2.30;99.90;;;;;;5071444;28;20213;-62
2022/03/07 12:28:43;;;;;;;28.08;24.02;;;2.30;99.90;;;;;;5065170;28;20194;-63
2022/03/07 12:31:14;;;;;;;25.55;22.83;;;2.30;99.90;;;;;;5064363;28;20209;-62
2022/03/07 12:33:48;;;;;;;27.02;23.15;;;2.30;99.90;;;;;;5064507;28;20202;-62
2022/03/07 12:36:34;;;;;;;27.45;21.98;;;2.30;99.90;;;;;;5067885;28;20206;-63
2022/03/07 12:39:04;;;;;;;28.20;22.60;;;2.30;99.90;;;;;;5069882;28;20224;-63
2022/03/07 12:41:36;;;;;;;25.23;20.67;;;2.20;99.90;;;;;;5074222;28;20185;-63
2022/03/07 12:44:08;;;;;;;29.38;23.92;;;2.10;99.90;;;;;;5054696;28;20201;-62
2022/03/07 12:46:39;;;;;;;27.58;23.83;;;2.10;99.90;;;;;;5064284;28;20241;-62
2022/03/07 12:49:19;;;;;;;27.70;22.08;;;2.20;99.90;;;;;;5069765;28;20202;-63
2022/03/07 12:51:50;;;;;;;26.15;23.35;;;2.30;99.90;;;;;;5064263;28;20209;-63
2022/03/07 12:54:29;;;;;;;30.40;24.05;;;2.20;99.90;;;;;;5064034;28;20206;-62
2022/03/07 12:57:00;;;;;;;28.02;23.08;;;2.30;99.90;;;;;;5065719;28;20217;-63
2022/03/07 12:59:33;;;;;;;28.55;23.15;;;2.20;99.90;;;;;;5065677;28;20290;-62
2022/03/07 13:02:05;;;;;;;30.45;23.38;;;2.20;99.90;;;;;;5063692;28;20265;-62
2022/03/07 13:04:38;;;;;;;28.13;23.23;;;2.10;99.90;;;;;;5064912;28;20198;-62
2022/03/07 13:07:15;;;;;;;29.63;22.27;;;2.10;99.90;;;;;;5063837;28;20555;-62